Terminal Aerodrome Forecast
Issued by NWS

Home | Current Version | Previous Version | Text Only | Print | Product List | Glossary On
Versions: 1 2 3 4 5 6 7 8 9 10 11 12 13 14 15
000
FTUS42 KMHX 221141 AAB
TAFOAJ
TAF AMD
KOAJ 221141Z 2212/2312 23006KT 6SM SHRA OVC015
     FM221800 17006KT P6SM VCSH BKN015
     FM222100 17006KT P6SM BKN015
     FM230000 15005KT 4SM SHRA VCTS OVC020CB
     FM230600 19010KT P6SM VCSH OVC025
      AMD LTD TO CLD VIS AND WIND=

USA.gov is the U.S. government's official web portal to all federal, state and local government web resources and services.